Time;durP1;ratioP1;P1;durP2;ratioP2;P2;SDS_P1;SDS_P2;PMS_P1;PMS_P2;Temp;Humidity;BMP_temperature;BMP_pressure;BME280_temperature;BME280_humidity;BME280_pressure;Samples;Min_cycle;Max_cycle;Signal;HPM_P1;HPM_P2
2022/03/28 00:02:23;;;;;;;1.35;1.13;;;23.40;99.90;;;;;;5041241;28;20206;-66
2022/03/28 00:04:50;;;;;;;3.13;1.20;;;23.50;99.90;;;;;;5041597;28;20032;-67
2022/03/28 00:07:17;;;;;;;4.32;1.02;;;23.60;99.90;;;;;;5039854;28;20047;-65
2022/03/28 00:09:43;;;;;;;1.58;0.75;;;23.90;99.90;;;;;;5043424;28;20021;-67
2022/03/28 00:12:12;;;;;;;2.40;0.90;;;24.30;99.90;;;;;;5043716;28;20024;-66
2022/03/28 00:14:39;;;;;;;1.23;0.98;;;24.40;99.90;;;;;;5042793;28;20025;-66
2022/03/28 00:17:06;;;;;;;0.93;0.80;;;24.40;99.90;;;;;;5040515;28;20051;-66
2022/03/28 00:19:33;;;;;;;3.30;0.60;;;24.40;99.90;;;;;;5043995;28;20017;-67
2022/03/28 00:22:00;;;;;;;1.40;0.85;;;24.30;99.90;;;;;;5041718;28;20551;-67
2022/03/28 00:24:27;;;;;;;1.27;0.70;;;24.10;99.90;;;;;;5023720;28;20037;-68
2022/03/28 00:26:55;;;;;;;2.30;0.80;;;24.10;99.90;;;;;;5043014;28;20024;-66
2022/03/28 00:29:22;;;;;;;0.90;0.65;;;24.20;99.90;;;;;;5041499;28;20057;-66
2022/03/28 00:31:49;;;;;;;2.17;0.77;;;24.30;99.90;;;;;;5046812;28;20025;-64
2022/03/28 00:34:21;;;;;;;2.55;0.82;;;24.50;99.90;;;;;;5044752;28;20051;-66
2022/03/28 00:36:50;;;;;;;1.80;0.90;;;24.70;99.90;;;;;;5021159;28;20419;-66
2022/03/28 00:39:19;;;;;;;1.58;0.88;;;24.80;99.90;;;;;;5044456;28;20033;-66
2022/03/28 00:41:51;;;;;;;1.55;0.82;;;24.90;99.90;;;;;;5044530;28;20032;-66
2022/03/28 00:44:19;;;;;;;3.35;0.73;;;25.00;99.90;;;;;;5044727;28;20033;-62
2022/03/28 00:46:46;;;;;;;2.40;0.75;;;25.20;99.90;;;;;;5043190;28;20025;-66
2022/03/28 00:49:14;;;;;;;1.23;0.60;;;25.20;99.90;;;;;;5045976;28;21682;-68
2022/03/28 00:51:41;;;;;;;2.83;0.77;;;25.50;99.90;;;;;;5041205;28;20029;-66
2022/03/28 00:54:09;;;;;;;3.13;1.40;;;25.70;99.90;;;;;;5051567;28;20029;-64
2022/03/28 00:56:38;;;;;;;1.15;0.60;;;25.80;99.90;;;;;;5042062;28;20111;-67
2022/03/28 00:59:06;;;;;;;10.02;5.97;;;26.00;99.90;;;;;;5049452;28;20024;-65
2022/03/28 01:01:33;;;;;;;3.25;1.08;;;26.00;99.90;;;;;;5040554;28;20033;-66
2022/03/28 01:04:00;;;;;;;1.27;0.63;;;26.10;99.90;;;;;;5047193;28;20427;-69
2022/03/28 01:06:27;;;;;;;1.17;0.57;;;26.20;99.90;;;;;;5045965;28;20776;-68
2022/03/28 01:08:54;;;;;;;0.52;0.40;;;26.30;99.90;;;;;;5038189;28;20063;-65
2022/03/28 01:11:22;;;;;;;1.92;0.77;;;26.30;99.90;;;;;;5040560;28;20037;-66
2022/03/28 01:13:49;;;;;;;1.70;0.73;;;26.20;99.90;;;;;;5036118;28;20018;-67
2022/03/28 01:16:16;;;;;;;3.90;0.60;;;26.20;99.90;;;;;;5034341;28;20400;-65
2022/03/28 01:18:49;;;;;;;0.80;0.57;;;26.20;99.90;;;;;;5037090;28;20072;-69
2022/03/28 01:21:18;;;;;;;0.98;0.55;;;26.30;99.90;;;;;;5037027;28;20079;-64
2022/03/28 01:23:45;;;;;;;0.95;0.60;;;26.40;99.90;;;;;;5041225;28;20024;-65
2022/03/28 01:26:15;;;;;;;0.95;0.45;;;26.40;99.90;;;;;;5037170;28;20032;-65
2022/03/28 01:28:42;;;;;;;1.88;0.55;;;26.40;99.90;;;;;;5038569;28;20087;-65
2022/03/28 01:31:09;;;;;;;0.73;0.47;;;26.40;99.90;;;;;;5036434;28;20395;-68
2022/03/28 01:33:36;;;;;;;1.92;0.70;;;26.50;99.90;;;;;;5035767;28;20388;-67
2022/03/28 01:36:03;;;;;;;0.40;0.40;;;26.50;99.90;;;;;;5034305;28;20383;-66
2022/03/28 01:38:30;;;;;;;1.40;0.90;;;26.50;99.90;;;;;;5039286;28;20495;-66
2022/03/28 01:40:57;;;;;;;1.08;0.50;;;26.70;99.90;;;;;;5046192;28;20040;-66
2022/03/28 01:43:24;;;;;;;0.98;0.50;;;26.80;99.90;;;;;;5027783;28;20029;-66
2022/03/28 01:45:51;;;;;;;0.90;0.60;;;27.00;99.90;;;;;;5031132;28;20029;-67
2022/03/28 01:48:18;;;;;;;2.05;0.65;;;27.00;99.90;;;;;;5035455;28;20029;-67
2022/03/28 01:50:45;;;;;;;2.28;0.65;;;26.90;99.90;;;;;;5037992;28;20514;-67
2022/03/28 01:53:12;;;;;;;0.75;0.60;;;27.20;99.90;;;;;;5042080;28;20029;-65
2022/03/28 01:55:39;;;;;;;1.50;0.70;;;27.40;99.90;;;;;;5039441;28;20028;-65
2022/03/28 01:58:06;;;;;;;1.10;0.65;;;27.30;99.90;;;;;;5031659;28;20022;-66
2022/03/28 02:00:34;;;;;;;0.68;0.32;;;27.50;99.90;;;;;;5025717;28;20240;-64
2022/03/28 02:03:01;;;;;;;1.80;0.43;;;27.70;99.90;;;;;;5035628;28;20028;-70
2022/03/28 02:05:28;;;;;;;1.73;0.50;;;27.90;99.90;;;;;;5027728;28;20132;-66
2022/03/28 02:07:55;;;;;;;0.55;0.38;;;28.30;99.90;;;;;;5035878;28;20025;-67
2022/03/28 02:10:23;;;;;;;1.48;0.50;;;28.60;99.90;;;;;;5043816;28;20032;-66
2022/03/28 02:12:51;;;;;;;5.68;4.13;;;29.20;99.90;;;;;;5041995;28;20036;-66
2022/03/28 02:15:19;;;;;;;3.75;1.88;;;29.90;99.90;;;;;;5042241;28;20542;-66
2022/03/28 02:17:46;;;;;;;0.85;0.60;;;30.10;99.90;;;;;;5036794;28;20018;-67
2022/03/28 02:20:14;;;;;;;1.90;0.85;;;30.70;99.90;;;;;;5034978;28;20021;-65
2022/03/28 02:22:43;;;;;;;1.52;1.08;;;31.10;99.90;;;;;;5034412;28;20052;-66
2022/03/28 02:25:11;;;;;;;1.65;0.80;;;31.00;99.90;;;;;;5046993;28;20032;-67
2022/03/28 02:27:40;;;;;;;1.00;0.70;;;30.70;99.90;;;;;;5046088;28;20025;-67
2022/03/28 02:30:09;;;;;;;0.88;0.68;;;30.60;99.90;;;;;;5047999;28;20051;-64
2022/03/28 02:32:36;;;;;;;2.10;0.50;;;30.50;99.90;;;;;;5037440;28;20031;-67
2022/03/28 02:35:05;;;;;;;1.15;0.70;;;30.50;99.90;;;;;;5041874;28;20021;-64
2022/03/28 02:37:32;;;;;;;0.73;0.60;;;30.70;99.90;;;;;;5037908;28;20045;-66
2022/03/28 02:39:59;;;;;;;2.85;0.70;;;31.00;99.90;;;;;;5039316;28;20025;-65
2022/03/28 02:42:26;;;;;;;8.75;7.32;;;30.60;99.90;;;;;;5040378;28;20026;-65
2022/03/28 02:44:53;;;;;;;1.55;1.15;;;30.40;99.90;;;;;;5044323;28;20097;-65
2022/03/28 02:47:21;;;;;;;1.55;0.90;;;30.50;99.90;;;;;;5029310;28;20108;-65
2022/03/28 02:49:48;;;;;;;2.70;1.00;;;30.70;99.90;;;;;;5041049;28;20032;-65
2022/03/28 02:52:16;;;;;;;1.77;1.05;;;30.90;99.90;;;;;;5041156;28;20025;-64
2022/03/28 02:54:42;;;;;;;1.00;0.90;;;30.80;99.90;;;;;;5043395;28;20021;-66
2022/03/28 02:57:12;;;;;;;0.88;0.70;;;30.60;99.90;;;;;;5042252;28;20029;-64
2022/03/28 02:59:39;;;;;;;1.75;0.80;;;30.50;99.90;;;;;;5044299;28;20044;-66
2022/03/28 03:02:07;;;;;;;1.05;0.70;;;30.60;99.90;;;;;;5040257;28;20074;-64
2022/03/28 03:04:34;;;;;;;2.35;0.95;;;30.20;99.90;;;;;;5042366;28;20029;-67
2022/03/28 03:07:02;;;;;;;3.47;1.15;;;29.80;99.90;;;;;;5041642;28;20479;-64
2022/03/28 03:09:29;;;;;;;1.52;0.98;;;29.40;99.90;;;;;;5038353;28;20060;-64
2022/03/28 03:11:56;;;;;;;2.30;1.05;;;29.30;99.90;;;;;;5044168;28;20535;-64
2022/03/28 03:14:24;;;;;;;2.08;1.23;;;29.40;99.90;;;;;;5041040;28;20037;-66
2022/03/28 03:16:51;;;;;;;1.77;0.93;;;29.90;99.90;;;;;;5040859;28;20037;-65
2022/03/28 03:19:18;;;;;;;2.83;1.10;;;30.30;99.90;;;;;;5046718;28;20352;-63
2022/03/28 03:21:48;;;;;;;1.98;0.80;;;30.20;99.90;;;;;;5041469;28;20025;-64
2022/03/28 03:24:15;;;;;;;3.65;2.67;;;30.20;99.90;;;;;;5043300;28;20056;-66
2022/03/28 03:26:42;;;;;;;3.28;1.58;;;30.20;99.90;;;;;;5044372;28;20087;-64
2022/03/28 03:29:11;;;;;;;1.73;1.55;;;30.20;99.90;;;;;;5043749;28;20017;-63
2022/03/28 03:31:39;;;;;;;0.77;0.65;;;30.10;99.90;;;;;;5052827;28;20060;-65
2022/03/28 03:34:09;;;;;;;2.05;0.88;;;30.20;99.90;;;;;;5041079;28;20081;-64
2022/03/28 03:36:37;;;;;;;3.63;1.35;;;30.20;99.90;;;;;;5040497;28;20049;-65
2022/03/28 03:39:04;;;;;;;0.75;0.50;;;30.30;99.90;;;;;;5040877;28;20022;-64
2022/03/28 03:41:31;;;;;;;1.30;0.80;;;30.50;99.90;;;;;;5044396;28;20021;-64
2022/03/28 03:43:58;;;;;;;1.88;0.50;;;30.80;99.90;;;;;;5040231;28;20493;-64
2022/03/28 03:46:25;;;;;;;1.10;0.70;;;30.90;99.90;;;;;;5039379;28;20103;-64
2022/03/28 03:48:52;;;;;;;1.25;0.70;;;30.90;99.90;;;;;;5037215;28;20506;-64
2022/03/28 03:51:19;;;;;;;1.60;0.70;;;30.70;99.90;;;;;;5020830;28;20037;-64
2022/03/28 03:53:46;;;;;;;3.63;1.05;;;30.80;99.90;;;;;;5041183;28;20484;-65
2022/03/28 03:56:13;;;;;;;2.67;1.52;;;30.80;99.90;;;;;;5042900;28;20527;-64
2022/03/28 03:58:40;;;;;;;3.22;1.48;;;30.70;99.90;;;;;;5038740;28;20123;-65
2022/03/28 04:01:09;;;;;;;1.75;1.50;;;30.50;99.90;;;;;;5046676;28;20074;-66
2022/03/28 04:03:37;;;;;;;3.13;1.50;;;30.10;99.90;;;;;;5041059;28;20155;-64
2022/03/28 04:06:05;;;;;;;2.65;1.63;;;30.10;99.90;;;;;;5039437;28;20120;-65
2022/03/28 04:08:32;;;;;;;2.58;1.52;;;30.10;99.90;;;;;;5046454;28;20029;-65
2022/03/28 04:10:59;;;;;;;2.78;1.90;;;29.70;99.90;;;;;;5040725;28;20043;-64
2022/03/28 04:13:26;;;;;;;2.08;1.40;;;29.40;99.90;;;;;;5047508;28;20106;-65
2022/03/28 04:15:53;;;;;;;3.28;1.35;;;29.00;99.90;;;;;;5041805;28;20388;-64
2022/03/28 04:18:20;;;;;;;5.22;2.10;;;28.90;99.90;;;;;;5020838;28;20438;-64
2022/03/28 04:20:47;;;;;;;2.83;1.90;;;28.80;99.90;;;;;;5046032;28;20056;-65
2022/03/28 04:23:14;;;;;;;2.72;1.75;;;28.70;99.90;;;;;;5044193;28;20033;-65
2022/03/28 04:25:41;;;;;;;3.55;1.70;;;28.60;99.90;;;;;;5044281;28;20032;-65
2022/03/28 04:28:08;;;;;;;3.90;1.95;;;28.40;99.90;;;;;;5039710;28;20044;-65
2022/03/28 04:30:35;;;;;;;3.30;1.80;;;28.20;99.90;;;;;;5042606;28;20239;-65
2022/03/28 04:33:03;;;;;;;2.83;1.77;;;28.10;99.90;;;;;;5044172;28;20048;-65
2022/03/28 04:35:30;;;;;;;3.30;1.83;;;28.20;99.90;;;;;;5046304;28;20013;-65
2022/03/28 04:37:59;;;;;;;4.18;2.38;;;28.30;99.90;;;;;;5046134;28;20081;-66
2022/03/28 04:40:26;;;;;;;6.30;2.08;;;28.40;99.90;;;;;;5042772;28;20473;-65
2022/03/28 04:42:53;;;;;;;3.95;2.28;;;28.40;99.90;;;;;;5044840;28;20391;-64
2022/03/28 04:45:20;;;;;;;3.70;2.00;;;28.30;99.90;;;;;;5042938;28;20032;-66
2022/03/28 04:47:47;;;;;;;3.40;1.90;;;28.30;99.90;;;;;;5040422;28;20388;-65
2022/03/28 04:50:14;;;;;;;5.63;2.17;;;28.30;99.90;;;;;;5044690;28;20029;-65
2022/03/28 04:52:41;;;;;;;5.35;2.05;;;27.90;99.90;;;;;;5044739;28;20025;-65
2022/03/28 04:55:08;;;;;;;5.57;2.22;;;27.70;99.90;;;;;;5045557;28;20020;-64
2022/03/28 04:57:35;;;;;;;2.25;1.42;;;27.60;99.90;;;;;;5047194;28;20502;-64
2022/03/28 05:00:03;;;;;;;6.53;1.98;;;27.40;99.90;;;;;;5039173;28;20036;-74
2022/03/28 05:02:30;;;;;;;4.45;2.05;;;27.60;99.90;;;;;;5039877;28;20163;-68
2022/03/28 05:04:57;;;;;;;5.22;2.38;;;27.70;99.90;;;;;;5038437;28;20296;-66
2022/03/28 05:07:29;;;;;;;5.07;2.22;;;27.70;99.90;;;;;;5038122;28;20071;-72
2022/03/28 05:09:57;;;;;;;5.30;2.42;;;27.60;99.90;;;;;;5038623;28;20025;-68
2022/03/28 05:12:25;;;;;;;6.63;3.03;;;27.40;99.90;;;;;;5039965;28;20033;-67
2022/03/28 05:14:53;;;;;;;4.15;2.20;;;27.10;99.90;;;;;;5039615;28;20021;-68
2022/03/28 05:17:25;;;;;;;4.97;2.45;;;26.90;99.90;;;;;;5039267;28;20215;-70
2022/03/28 05:19:54;;;;;;;6.70;4.45;;;26.70;99.90;;;;;;5036561;28;20048;-68
2022/03/28 05:22:21;;;;;;;5.70;1.83;;;26.60;99.90;;;;;;5036904;28;20025;-69
2022/03/28 05:24:49;;;;;;;4.18;1.90;;;26.60;99.90;;;;;;5038957;28;20036;-67
2022/03/28 05:27:16;;;;;;;2.75;2.05;;;26.60;99.90;;;;;;5040268;28;20030;-69
2022/03/28 05:29:44;;;;;;;3.72;2.42;;;26.60;99.90;;;;;;5039737;28;20056;-68
2022/03/28 05:32:11;;;;;;;4.15;2.38;;;26.50;99.90;;;;;;5021211;28;20093;-70
2022/03/28 05:34:39;;;;;;;4.07;2.22;;;26.40;99.90;;;;;;5039138;28;20035;-69
2022/03/28 05:37:14;;;;;;;3.50;2.15;;;26.40;99.90;;;;;;5040510;28;20365;-69
2022/03/28 05:39:43;;;;;;;4.28;2.28;;;26.30;99.90;;;;;;5038664;28;20029;-69
2022/03/28 05:42:10;;;;;;;4.93;2.22;;;26.10;99.90;;;;;;5040431;28;20096;-68
2022/03/28 05:44:40;;;;;;;3.40;2.13;;;26.00;99.90;;;;;;5039963;28;20025;-70
2022/03/28 05:47:07;;;;;;;5.90;2.17;;;25.90;99.90;;;;;;5040358;28;20047;-67
2022/03/28 05:49:34;;;;;;;2.92;1.83;;;25.70;99.90;;;;;;5038298;28;20029;-69
2022/03/28 05:52:01;;;;;;;3.67;2.03;;;25.40;99.90;;;;;;5038065;28;20559;-68
2022/03/28 05:54:28;;;;;;;7.47;2.15;;;25.30;99.90;;;;;;5037405;28;20031;-67
2022/03/28 05:56:55;;;;;;;4.35;2.30;;;25.20;99.90;;;;;;5039951;28;20311;-67
2022/03/28 05:59:22;;;;;;;2.72;2.10;;;25.20;99.90;;;;;;5040943;28;20025;-68
2022/03/28 06:01:49;;;;;;;4.57;2.65;;;25.10;99.90;;;;;;5042741;28;20479;-68
2022/03/28 06:04:16;;;;;;;6.63;2.60;;;25.00;99.90;;;;;;5042332;28;20037;-67
2022/03/28 06:06:43;;;;;;;4.88;2.45;;;24.90;99.90;;;;;;5041669;28;20090;-69
2022/03/28 06:09:10;;;;;;;5.55;2.78;;;25.00;99.90;;;;;;5040896;28;20041;-69
2022/03/28 06:11:37;;;;;;;4.05;2.47;;;24.90;99.90;;;;;;5043307;28;20029;-69
2022/03/28 06:14:04;;;;;;;4.00;2.42;;;24.80;99.90;;;;;;5037648;28;20033;-67
2022/03/28 06:16:31;;;;;;;4.07;2.30;;;24.80;99.90;;;;;;5043503;28;20040;-68
2022/03/28 06:18:58;;;;;;;2.65;2.00;;;24.70;99.90;;;;;;5040174;28;20051;-67
2022/03/28 06:21:25;;;;;;;2.67;2.15;;;24.60;99.90;;;;;;5042481;28;20413;-69
2022/03/28 06:23:54;;;;;;;3.67;2.85;;;24.50;99.90;;;;;;5041889;28;20036;-67
2022/03/28 06:26:20;;;;;;;4.47;2.75;;;24.40;99.90;;;;;;5040132;28;20029;-69
2022/03/28 06:28:49;;;;;;;15.20;4.25;;;24.30;99.90;;;;;;5041925;28;20047;-73
2022/03/28 06:31:16;;;;;;;6.45;3.03;;;24.30;99.90;;;;;;5019594;28;20308;-67
2022/03/28 06:33:43;;;;;;;4.35;2.75;;;24.20;99.90;;;;;;5041065;28;20032;-68
2022/03/28 06:36:10;;;;;;;12.65;6.03;;;24.10;99.90;;;;;;5041464;28;20175;-67
2022/03/28 06:38:37;;;;;;;15.57;9.63;;;24.00;99.90;;;;;;5041020;28;20465;-69
2022/03/28 06:41:05;;;;;;;5.65;3.67;;;24.00;99.90;;;;;;5040979;28;20486;-69
2022/03/28 06:43:32;;;;;;;4.30;2.88;;;23.90;99.90;;;;;;5043682;28;20056;-68
2022/03/28 06:45:59;;;;;;;4.05;2.97;;;23.80;99.90;;;;;;5042616;28;20521;-67
2022/03/28 06:48:27;;;;;;;4.47;3.17;;;23.70;99.90;;;;;;5042724;28;20090;-68
2022/03/28 06:50:54;;;;;;;4.50;2.75;;;23.70;99.90;;;;;;5042225;28;20113;-69
2022/03/28 06:53:20;;;;;;;9.60;3.75;;;23.60;99.90;;;;;;5043456;28;20372;-69
2022/03/28 06:55:47;;;;;;;8.45;2.97;;;23.50;99.90;;;;;;5041849;28;20459;-67
2022/03/28 06:58:16;;;;;;;3.13;1.95;;;23.50;99.90;;;;;;5042201;28;20415;-67
2022/03/28 07:00:43;;;;;;;3.00;1.85;;;23.40;99.90;;;;;;5043484;28;20017;-68
2022/03/28 07:03:10;;;;;;;4.10;1.80;;;23.30;99.90;;;;;;5040677;28;20573;-70
2022/03/28 07:05:37;;;;;;;3.00;2.13;;;23.30;99.90;;;;;;5042060;28;20605;-68
2022/03/28 07:08:04;;;;;;;6.80;4.03;;;23.20;99.90;;;;;;5042290;28;20527;-68
2022/03/28 07:10:31;;;;;;;4.40;2.00;;;23.20;99.90;;;;;;5040856;28;20108;-67
2022/03/28 07:12:58;;;;;;;2.35;1.77;;;23.20;99.90;;;;;;5041073;28;20033;-69
2022/03/28 07:15:27;;;;;;;3.90;2.30;;;23.10;99.90;;;;;;5039345;28;20031;-66
2022/03/28 07:17:58;;;;;;;6.40;1.90;;;23.10;99.90;;;;;;5039884;28;20021;-66
2022/03/28 07:20:27;;;;;;;4.18;1.95;;;23.10;99.90;;;;;;5040529;28;20021;-68
2022/03/28 07:22:55;;;;;;;2.22;1.67;;;23.00;99.90;;;;;;5041624;28;20112;-69
2022/03/28 07:25:23;;;;;;;5.32;2.13;;;23.00;99.90;;;;;;5023880;28;20025;-68
2022/03/28 07:27:51;;;;;;;4.85;1.83;;;23.00;99.90;;;;;;5041470;28;20098;-67
2022/03/28 07:30:19;;;;;;;3.60;1.52;;;22.90;99.90;;;;;;5041561;28;20535;-70
2022/03/28 07:32:46;;;;;;;4.60;2.50;;;22.90;99.90;;;;;;5037662;28;20120;-70
2022/03/28 07:35:15;;;;;;;3.50;1.95;;;22.90;99.90;;;;;;5040388;28;20061;-66
2022/03/28 07:37:43;;;;;;;2.13;1.10;;;22.90;99.90;;;;;;5048520;28;20049;-66
2022/03/28 07:40:11;;;;;;;5.82;1.40;;;22.90;99.90;;;;;;5043588;28;20029;-65
2022/03/28 07:42:40;;;;;;;5.28;2.10;;;22.80;99.90;;;;;;5038333;28;20044;-66
2022/03/28 07:45:08;;;;;;;3.40;1.23;;;22.70;99.90;;;;;;5040951;28;20116;-69
2022/03/28 07:47:36;;;;;;;3.33;1.83;;;22.60;99.90;;;;;;5040229;28;20463;-66
2022/03/28 07:50:04;;;;;;;6.00;2.25;;;22.50;99.90;;;;;;5037719;28;20040;-65
2022/03/28 07:52:32;;;;;;;4.38;3.15;;;22.50;99.90;;;;;;5040609;28;20017;-65
2022/03/28 07:55:00;;;;;;;8.13;2.55;;;22.50;99.90;;;;;;5036727;28;20178;-70
2022/03/28 07:57:27;;;;;;;4.13;1.65;;;22.50;99.90;;;;;;5037131;28;20353;-72
2022/03/28 07:59:55;;;;;;;12.27;10.57;;;22.40;99.90;;;;;;5022748;28;20060;-72
2022/03/28 08:02:24;;;;;;;7.97;4.47;;;22.30;99.90;;;;;;5038034;28;20383;-68
2022/03/28 08:04:51;;;;;;;15.60;10.98;;;22.30;99.90;;;;;;5020054;28;20123;-70
2022/03/28 08:07:18;;;;;;;4.45;1.70;;;22.20;99.90;;;;;;5037495;28;20068;-70
2022/03/28 08:09:45;;;;;;;3.88;1.70;;;22.30;99.90;;;;;;5040421;28;20029;-69
2022/03/28 08:12:12;;;;;;;3.70;2.30;;;22.20;99.90;;;;;;5041611;28;20033;-70
2022/03/28 08:14:39;;;;;;;5.30;2.35;;;22.20;99.90;;;;;;5024010;28;20423;-72
2022/03/28 08:17:07;;;;;;;3.47;1.90;;;22.10;99.90;;;;;;5042573;28;20028;-70
2022/03/28 08:19:34;;;;;;;4.88;1.90;;;22.00;99.90;;;;;;5043631;28;20024;-69
2022/03/28 08:22:01;;;;;;;4.30;1.95;;;22.00;99.90;;;;;;5050212;28;20025;-68
2022/03/28 08:24:28;;;;;;;3.85;1.80;;;22.00;99.90;;;;;;5041017;28;20411;-69
2022/03/28 08:26:55;;;;;;;5.75;2.20;;;21.90;99.90;;;;;;5044431;28;20468;-69
2022/03/28 08:29:22;;;;;;;5.78;2.22;;;21.90;99.90;;;;;;5042632;28;20486;-71
2022/03/28 08:31:49;;;;;;;5.07;2.33;;;21.90;99.90;;;;;;5040843;28;20422;-70
2022/03/28 08:34:16;;;;;;;4.40;2.70;;;21.80;99.90;;;;;;5043344;28;20480;-72
2022/03/28 08:36:43;;;;;;;5.70;3.10;;;21.80;99.90;;;;;;5046197;28;20045;-69
2022/03/28 08:39:10;;;;;;;5.85;4.75;;;21.70;99.90;;;;;;5044692;28;20029;-74
2022/03/28 08:41:37;;;;;;;4.47;3.28;;;21.80;99.90;;;;;;5025589;28;20536;-69
2022/03/28 08:44:05;;;;;;;4.30;3.22;;;21.70;99.90;;;;;;5037394;28;20033;-68
2022/03/28 08:46:32;;;;;;;5.43;3.40;;;21.70;99.90;;;;;;5041100;28;20103;-68
2022/03/28 08:49:00;;;;;;;6.78;3.58;;;21.80;99.90;;;;;;5037164;28;20036;-65
2022/03/28 08:51:30;;;;;;;4.43;3.65;;;21.70;99.90;;;;;;5039694;28;20029;-67
2022/03/28 08:53:58;;;;;;;6.05;4.25;;;21.70;99.90;;;;;;5040172;28;20033;-66
2022/03/28 08:56:25;;;;;;;7.97;5.07;;;21.60;99.90;;;;;;5038884;28;20043;-66
2022/03/28 08:58:52;;;;;;;8.40;5.50;;;21.50;99.90;;;;;;5039367;28;20483;-67
2022/03/28 09:01:24;;;;;;;6.45;5.50;;;21.50;99.90;;;;;;5020641;28;20254;-68
2022/03/28 09:03:51;;;;;;;6.47;5.07;;;21.40;99.90;;;;;;5039629;28;20514;-70
2022/03/28 09:06:38;;;;;;;10.25;6.40;;;21.40;99.90;;;;;;5041199;28;20328;-68
2022/03/28 09:09:26;;;;;;;9.25;6.38;;;21.40;99.90;;;;;;5042835;28;20109;-65
2022/03/28 09:11:57;;;;;;;9.52;7.20;;;21.30;99.90;;;;;;5040475;28;20078;-66
2022/03/28 09:14:36;;;;;;;9.35;6.88;;;21.30;99.90;;;;;;5038711;28;20040;-64
2022/03/28 09:17:15;;;;;;;6.38;5.78;;;21.20;99.90;;;;;;5039538;28;20041;-69
2022/03/28 09:19:49;;;;;;;10.40;6.43;;;21.30;99.90;;;;;;5039689;28;20021;-67
2022/03/28 09:22:23;;;;;;;8.35;6.25;;;21.30;99.90;;;;;;5037344;28;20037;-68
2022/03/28 09:24:52;;;;;;;9.80;6.28;;;21.30;99.90;;;;;;5039977;28;20140;-70
2022/03/28 09:27:22;;;;;;;9.55;5.88;;;21.40;99.90;;;;;;5022859;28;20026;-68
2022/03/28 09:30:02;;;;;;;7.65;5.55;;;21.30;99.90;;;;;;5042266;28;20831;-69
2022/03/28 09:32:32;;;;;;;7.57;5.78;;;21.30;99.90;;;;;;5042545;28;20025;-69
2022/03/28 09:35:08;;;;;;;6.90;6.05;;;21.40;99.90;;;;;;5048467;28;20032;-70
2022/03/28 09:37:58;;;;;;;8.00;6.85;;;21.40;99.90;;;;;;5047381;28;20041;-68
2022/03/28 09:40:41;;;;;;;8.15;6.30;;;21.40;99.90;;;;;;5048112;28;20048;-70
2022/03/28 09:43:20;;;;;;;9.23;7.50;;;21.40;99.90;;;;;;5047286;28;20037;-67
2022/03/28 09:45:53;;;;;;;10.85;7.55;;;21.30;99.90;;;;;;5046134;28;20029;-71
2022/03/28 09:48:22;;;;;;;11.15;7.63;;;21.30;99.90;;;;;;5027860;28;20094;-66
2022/03/28 09:51:01;;;;;;;8.55;6.03;;;21.30;99.90;;;;;;5045269;28;20029;-68
2022/03/28 09:53:33;;;;;;;11.43;7.22;;;21.30;99.90;;;;;;5047363;28;20036;-67
2022/03/28 09:56:11;;;;;;;7.35;6.65;;;21.20;99.90;;;;;;5052246;28;20501;-64
2022/03/28 09:58:49;;;;;;;7.10;6.40;;;21.20;99.90;;;;;;5051410;28;20097;-65
2022/03/28 10:01:40;;;;;;;8.38;5.95;;;21.20;99.90;;;;;;5046554;28;20059;-65
2022/03/28 10:04:09;;;;;;;8.88;6.35;;;21.10;99.90;;;;;;5045168;28;20089;-67
2022/03/28 10:06:37;;;;;;;9.77;7.45;;;21.10;99.90;;;;;;5046491;28;20037;-68
2022/03/28 10:09:07;;;;;;;9.18;7.13;;;21.00;99.90;;;;;;5047083;28;20033;-65
2022/03/28 10:11:36;;;;;;;12.30;9.83;;;21.00;99.90;;;;;;4696165;28;10000500;-69
2022/03/28 10:14:04;;;;;;;11.30;8.75;;;21.00;99.90;;;;;;5044891;28;20033;-68
2022/03/28 10:16:33;;;;;;;8.00;7.03;;;21.10;99.90;;;;;;5044569;28;20039;-65
2022/03/28 10:19:02;;;;;;;10.27;7.10;;;21.10;99.90;;;;;;5038725;28;20036;-65
2022/03/28 10:21:35;;;;;;;8.02;7.22;;;21.10;99.90;;;;;;5044803;28;20027;-64
2022/03/28 10:24:11;;;;;;;7.43;6.38;;;21.10;99.90;;;;;;5041946;28;20033;-67
2022/03/28 10:26:42;;;;;;;8.85;7.32;;;21.10;99.90;;;;;;5044943;28;20484;-67
2022/03/28 10:29:15;;;;;;;11.23;7.60;;;21.10;99.90;;;;;;5044266;28;20101;-70
2022/03/28 10:31:54;;;;;;;11.48;8.15;;;21.10;99.90;;;;;;5042773;28;21030;-66
2022/03/28 10:34:46;;;;;;;9.18;7.45;;;21.00;99.90;;;;;;5024250;28;20559;-66
2022/03/28 10:37:35;;;;;;;10.27;9.20;;;20.90;99.90;;;;;;4719902;23;10001713;-70
2022/03/28 10:40:22;;;;;;;11.15;9.05;;;20.90;99.90;;;;;;5022445;28;20033;-70
2022/03/28 10:43:14;;;;;;;10.32;9.30;;;21.00;99.90;;;;;;5022569;28;20965;-70
2022/03/28 10:45:59;;;;;;;14.00;10.73;;;21.00;99.90;;;;;;5022740;28;20056;-71
2022/03/28 10:48:39;;;;;;;12.82;9.25;;;21.10;99.90;;;;;;5023529;28;20109;-68
2022/03/28 10:51:12;;;;;;;11.07;9.10;;;21.10;99.90;;;;;;5023960;28;20029;-65
2022/03/28 10:53:44;;;;;;;11.90;10.70;;;21.10;99.90;;;;;;5024703;28;20112;-66
2022/03/28 10:56:20;;;;;;;10.68;9.57;;;21.20;99.90;;;;;;5021778;28;20033;-74
2022/03/28 10:58:51;;;;;;;11.38;10.30;;;21.10;99.90;;;;;;5023508;28;20028;-67
2022/03/28 11:01:21;;;;;;;11.55;10.35;;;21.00;99.90;;;;;;5024057;28;20044;-68
2022/03/28 11:04:03;;;;;;;11.95;10.85;;;21.00;99.90;;;;;;5024774;28;20033;-67
2022/03/28 11:06:53;;;;;;;;;;;21.00;99.90;;;;;;5024015;28;20025;-71
2022/03/28 11:09:48;;;;;;;11.55;10.15;;;21.00;99.90;;;;;;5026138;28;19956;-68
2022/03/28 11:12:16;;;;;;;11.35;9.90;;;21.00;99.90;;;;;;5018437;28;20256;-68
2022/03/28 11:14:52;;;;;;;10.90;9.18;;;21.00;99.90;;;;;;5026241;28;20033;-68
2022/03/28 11:17:28;;;;;;;10.75;9.00;;;21.00;99.90;;;;;;5016696;28;20778;-67
2022/03/28 11:20:03;;;;;;;10.02;8.27;;;21.00;99.90;;;;;;5026875;28;20160;-68
2022/03/28 11:22:57;;;;;;;12.30;8.98;;;21.00;99.90;;;;;;5019867;28;20030;-69
2022/03/28 11:25:55;;;;;;;8.43;7.63;;;21.00;99.90;;;;;;5029778;28;20025;-68
2022/03/28 11:28:28;;;;;;;10.27;8.68;;;20.90;99.90;;;;;;5030668;28;20115;-70
2022/03/28 11:31:06;;;;;;;9.73;8.73;;;20.90;99.90;;;;;;5026088;28;20029;-68
2022/03/28 11:33:48;;;;;;;11.80;8.27;;;21.00;99.90;;;;;;5029142;28;20026;-69
2022/03/28 11:36:21;;;;;;;10.10;8.77;;;20.90;99.90;;;;;;5029861;28;20029;-69
2022/03/28 11:38:51;;;;;;;11.27;8.73;;;20.90;99.90;;;;;;5029525;28;20044;-72
2022/03/28 11:41:20;;;;;;;9.82;8.82;;;20.90;99.90;;;;;;4998285;28;20029;-69
2022/03/28 11:43:53;;;;;;;9.07;8.07;;;20.90;99.90;;;;;;5027445;28;20033;-70
2022/03/28 11:46:32;;;;;;;10.95;8.05;;;20.90;99.90;;;;;;5006391;28;20741;-71
2022/03/28 11:49:04;;;;;;;8.70;7.80;;;20.90;99.90;;;;;;5029752;28;20037;-72
2022/03/28 11:51:33;;;;;;;9.97;8.93;;;20.90;99.90;;;;;;5029050;28;20025;-68
2022/03/28 11:54:06;;;;;;;9.20;8.13;;;20.90;99.90;;;;;;5029127;28;20036;-71
2022/03/28 11:58:14;;;;;;;11.27;7.60;;;20.80;99.90;;;;;;5009298;28;20084;-70
2022/03/28 11:59:26;;;;;;;8.30;7.20;;;20.80;99.90;;;;;;5027296;28;20444;-67
2022/03/28 12:02:06;;;;;;;7.78;6.97;;;20.80;99.90;;;;;;5028808;28;20290;-70
2022/03/28 12:04:34;;;;;;;9.40;7.18;;;20.80;99.90;;;;;;5025958;28;20033;-66
2022/03/28 12:07:02;;;;;;;8.32;7.45;;;20.70;99.90;;;;;;5029341;28;20040;-67
2022/03/28 12:09:28;;;;;;;7.85;6.60;;;20.70;99.90;;;;;;5028370;28;20040;-66
2022/03/28 12:11:59;;;;;;;8.35;7.30;;;20.60;99.90;;;;;;5029515;28;20064;-67
2022/03/28 12:14:29;;;;;;;8.82;6.70;;;20.70;99.90;;;;;;5028055;28;20030;-68
2022/03/28 12:17:06;;;;;;;7.65;6.68;;;20.70;99.90;;;;;;5084393;27;20482;-69
2022/03/28 12:19:33;;;;;;;8.15;6.93;;;20.80;99.90;;;;;;5088596;28;20036;-66
2022/03/28 12:22:13;;;;;;;9.73;6.22;;;20.80;99.90;;;;;;5085067;28;20024;-70
2022/03/28 12:24:51;;;;;;;9.52;6.68;;;20.70;99.90;;;;;;5083069;28;20354;-68
2022/03/28 12:27:23;;;;;;;8.20;7.15;;;20.70;99.90;;;;;;5077670;28;20051;-69
2022/03/28 12:29:54;;;;;;;9.02;6.85;;;20.70;99.90;;;;;;5083635;28;20016;-69
2022/03/28 12:32:21;;;;;;;8.70;7.90;;;20.70;99.90;;;;;;5084607;28;20757;-67
2022/03/28 12:34:48;;;;;;;10.80;7.53;;;20.70;99.90;;;;;;5085840;28;20564;-66
2022/03/28 12:37:17;;;;;;;9.93;7.53;;;20.70;99.90;;;;;;5084700;28;20177;-67
2022/03/28 12:39:45;;;;;;;13.50;7.82;;;20.70;99.90;;;;;;5086498;28;20024;-69
2022/03/28 12:42:25;;;;;;;11.00;8.40;;;20.80;99.90;;;;;;5088580;28;20547;-68
2022/03/28 12:44:56;;;;;;;11.80;7.63;;;20.70;99.90;;;;;;5086550;28;20028;-67
2022/03/28 12:47:28;;;;;;;15.32;8.20;;;20.70;99.90;;;;;;5085068;28;20077;-64
2022/03/28 12:49:56;;;;;;;12.57;8.60;;;20.70;99.90;;;;;;5079434;28;20020;-67
2022/03/28 12:52:29;;;;;;;9.00;8.13;;;20.70;99.90;;;;;;5097361;28;20020;-65
2022/03/28 12:54:57;;;;;;;9.40;8.50;;;20.60;99.90;;;;;;5081360;28;20040;-65
2022/03/28 12:57:28;;;;;;;11.27;8.82;;;20.50;99.90;;;;;;5089463;28;20114;-65
2022/03/28 12:59:56;;;;;;;10.15;9.13;;;20.50;99.90;;;;;;5081636;28;20039;-65